Arcadia, NE (68815)

1:40 AM CDT on July 26, 2014 (GMT -0500)
Sharp (KODX) Elev 2070 ft | 41.62 °N, 98.95 °W | Change Station

Current weather conditions updated 47 minutes ago

Clear
Clear
73 °F
Feels Like 73 °F
N
4
Wind Variable Wind from SE

Today is forecast to be Warmer than yesterday. Thunderstorms developing in the afternoon.

Today
High -- | Low -- °F
--% Chance of Precip.
Yesterday
High -- | Low -- °F
Precip. -- in
6:25 AM 8:59 PM
Waning Crescent, 0% visible
Pressure 29.77 in
Visibility 9.0 miles
Clouds Clear
Dew Point 72 °F
Humidity 96%
Rainfall 0.00 in
Snow Depth Not available.
UV 0 out of 12
Pollen 7.80 out of 12
Air Quality Not available.
Flu Activity Not available.
METAR KODX 260553Z AUTO 14003KT 9SM CLR 23/22 A2981 RMK AO2 SLP081 T02280222 10306 20228 403220189 58006

More Conditions Fewer Conditions

Pressure 29.77 in
Visibility 9.0 miles
Clouds Clear
Dew Point 72 °F
Humidity 96%
Rainfall 0.00 in
Snow Depth Not available.
UV 0 out of 12
Pollen 7.80 out of 12
Air Quality Not available.
Flu Activity Not available.
METAR KODX 260553Z AUTO 14003KT 9SM CLR 23/22 A2981 RMK AO2 SLP081 T02280222 10306 20228 403220189 58006

More Conditions Fewer Conditions

10-Day Weather Forecast

Almanac

Astronomy

Jul. 26, 2014 Rise Set
Actual Time 6:25 AM CDT 8:59 PM CDT
Civil Twilight 5:53 AM CDT 9:31 PM CDT
Nautical Twilight 5:13 AM CDT 10:11 PM CDT
Astronomical Twilight 4:28 AM CDT 10:55 PM CDT
Moon 6:19 AM CDT 8:34 PM CDT
Length of Visible Light 15h 38m
Length of Day
14h 34m
Tomorrow will be 1m 55s shorter.
Waning Crescent, 0% of the Moon is Illuminated
Today
Waning Crescent
Jul 26
New
Aug 3
First Quarter
Aug 10
Full
Aug 17
Last Quarter

Today's Extremes

State Highs State Lows

Community

WunderPhotos

Upload Photos

1,737,524 photos uploaded!

Nearby

Snow Depth

Station Depth Elevation
No new snow has been reported.

Earthquake Activity

City Distance Mag. Time & Date
No recent earthquake activity has been reported nearby.
Minimum magnitude displayed is 2.5.

Coastal Water Temperatures

Place Temperature
No Stations Reporting

Nearby Weather Stations

Station Location Temp. Heat Index Dew Point Humidity Wind Precip. Elev Updated Type
Central, Loup City, NE 74.5 °F 74 °F 71 °F 88% SSE  at  1.1 mph - / hr 2090 ft 1:40 AM CDT Normal
Sargent, Sargent, NE 74.7 °F 74 °F 70 °F 85% ENE  at  1.0 mph 0.00 in / hr 2314 ft 1:27 AM CDT Normal

Show More Stations Show Fewer Stations